sensor_id;sensor_type;location;lat;lon;timestamp;pressure;altitude;pressure_sealevel;temperature;humidity
78845;BME280;68195;50.854;2.860;2023-06-10T00:00:08;101056.03;;;21.71;57.32
78845;BME280;68195;50.854;2.860;2023-06-10T00:02:40;101035.59;;;21.52;57.66
78845;BME280;68195;50.854;2.860;2023-06-10T00:05:05;101096.31;;;21.86;57.55
78845;BME280;68195;50.854;2.860;2023-06-10T00:07:33;101046.38;;;21.60;57.68
78845;BME280;68195;50.854;2.860;2023-06-10T00:10:04;100983.56;;;21.20;57.57
78845;BME280;68195;50.854;2.860;2023-06-10T00:12:32;101089.28;;;21.85;57.64
78845;BME280;68195;50.854;2.860;2023-06-10T00:15:05;101092.38;;;21.90;57.77
78845;BME280;68195;50.854;2.860;2023-06-10T00:17:33;101021.63;;;21.50;57.65
78845;BME280;68195;50.854;2.860;2023-06-10T00:20:06;101015.72;;;21.37;57.62
78845;BME280;68195;50.854;2.860;2023-06-10T00:22:34;101031.25;;;21.51;57.58
78845;BME280;68195;50.854;2.860;2023-06-10T00:25:03;101055.59;;;21.56;57.67
78845;BME280;68195;50.854;2.860;2023-06-10T00:27:29;100969.56;;;20.99;57.52
78845;BME280;68195;50.854;2.860;2023-06-10T00:30:02;100992.78;;;21.16;57.71
78845;BME280;68195;50.854;2.860;2023-06-10T00:32:35;101062.44;;;21.59;57.72
78845;BME280;68195;50.854;2.860;2023-06-10T00:35:01;101040.91;;;21.42;57.92
78845;BME280;68195;50.854;2.860;2023-06-10T00:37:29;101038.50;;;21.39;57.96
78845;BME280;68195;50.854;2.860;2023-06-10T00:39:55;101064.41;;;21.57;58.13
78845;BME280;68195;50.854;2.860;2023-06-10T00:42:23;101012.63;;;21.22;58.10
78845;BME280;68195;50.854;2.860;2023-06-10T00:44:50;101075.59;;;21.60;58.02
78845;BME280;68195;50.854;2.860;2023-06-10T00:47:16;101061.31;;;21.42;58.25
78845;BME280;68195;50.854;2.860;2023-06-10T00:49:41;101072.81;;;21.52;58.21
78845;BME280;68195;50.854;2.860;2023-06-10T00:52:08;101013.31;;;21.14;57.81
78845;BME280;68195;50.854;2.860;2023-06-10T00:54:36;101061.19;;;21.43;58.33
78845;BME280;68195;50.854;2.860;2023-06-10T00:57:02;101058.78;;;21.30;58.56
78845;BME280;68195;50.854;2.860;2023-06-10T00:59:28;101080.38;;;21.47;58.51
78845;BME280;68195;50.854;2.860;2023-06-10T01:01:55;101057.94;;;21.30;58.32
78845;BME280;68195;50.854;2.860;2023-06-10T01:04:23;100948.44;;;20.58;58.91
78845;BME280;68195;50.854;2.860;2023-06-10T01:09:47;101070.66;;;21.26;58.86
78845;BME280;68195;50.854;2.860;2023-06-10T01:12:26;101083.53;;;21.31;58.87
78845;BME280;68195;50.854;2.860;2023-06-10T01:14:52;101089.53;;;21.33;58.88
78845;BME280;68195;50.854;2.860;2023-06-10T01:17:20;101036.66;;;21.01;58.92
78845;BME280;68195;50.854;2.860;2023-06-10T01:19:53;101093.72;;;21.26;59.16
78845;BME280;68195;50.854;2.860;2023-06-10T01:22:23;101075.81;;;21.18;59.13
78845;BME280;68195;50.854;2.860;2023-06-10T01:24:49;101024.75;;;20.85;59.05
78845;BME280;68195;50.854;2.860;2023-06-10T01:27:21;101061.53;;;21.00;59.41
78845;BME280;68195;50.854;2.860;2023-06-10T01:29:56;101050.06;;;20.89;59.04
78845;BME280;68195;50.854;2.860;2023-06-10T01:32:33;101024.28;;;20.71;59.62
78845;BME280;68195;50.854;2.860;2023-06-10T01:35:05;101034.50;;;20.75;59.56
78845;BME280;68195;50.854;2.860;2023-06-10T01:37:34;101064.84;;;20.82;59.73
78845;BME280;68195;50.854;2.860;2023-06-10T01:40:04;101096.75;;;21.02;60.01
78845;BME280;68195;50.854;2.860;2023-06-10T01:42:32;101069.88;;;20.85;59.50
78845;BME280;68195;50.854;2.860;2023-06-10T01:44:58;101031.00;;;20.65;59.84
78845;BME280;68195;50.854;2.860;2023-06-10T01:47:28;101047.91;;;20.74;59.66
78845;BME280;68195;50.854;2.860;2023-06-10T01:49:53;101011.91;;;20.50;59.34
78845;BME280;68195;50.854;2.860;2023-06-10T01:52:19;101050.69;;;20.72;59.90
78845;BME280;68195;50.854;2.860;2023-06-10T01:54:44;101018.16;;;20.39;60.01
78845;BME280;68195;50.854;2.860;2023-06-10T01:57:12;101099.25;;;20.94;60.03
78845;BME280;68195;50.854;2.860;2023-06-10T01:59:41;101059.91;;;20.68;59.95
78845;BME280;68195;50.854;2.860;2023-06-10T02:02:09;101057.44;;;20.55;60.33
78845;BME280;68195;50.854;2.860;2023-06-10T02:04:38;101097.25;;;20.76;60.46
78845;BME280;68195;50.854;2.860;2023-06-10T02:07:08;101098.34;;;20.74;60.82
78845;BME280;68195;50.854;2.860;2023-06-10T02:09:34;101070.41;;;20.69;60.38
78845;BME280;68195;50.854;2.860;2023-06-10T02:12:02;101084.50;;;20.70;60.13
78845;BME280;68195;50.854;2.860;2023-06-10T02:14:33;101030.44;;;20.40;60.24
78845;BME280;68195;50.854;2.860;2023-06-10T02:16:59;101070.09;;;20.63;60.63
78845;BME280;68195;50.854;2.860;2023-06-10T02:19:27;101051.66;;;20.40;60.64
78845;BME280;68195;50.854;2.860;2023-06-10T02:21:52;101089.63;;;20.62;60.59
78845;BME280;68195;50.854;2.860;2023-06-10T02:24:18;101072.06;;;20.49;61.01
78845;BME280;68195;50.854;2.860;2023-06-10T02:26:43;101048.56;;;20.35;60.96
78845;BME280;68195;50.854;2.860;2023-06-10T02:29:11;101073.66;;;20.52;60.84
78845;BME280;68195;50.854;2.860;2023-06-10T02:31:39;101082.44;;;20.53;60.90
78845;BME280;68195;50.854;2.860;2023-06-10T02:34:07;101106.84;;;20.67;61.07
78845;BME280;68195;50.854;2.860;2023-06-10T02:36:33;101045.22;;;20.33;60.82
78845;BME280;68195;50.854;2.860;2023-06-10T02:39:02;100967.63;;;19.79;61.26
78845;BME280;68195;50.854;2.860;2023-06-10T02:41:30;101027.88;;;19.98;61.59
78845;BME280;68195;50.854;2.860;2023-06-10T02:43:58;101108.84;;;20.54;61.48
78845;BME280;68195;50.854;2.860;2023-06-10T02:46:26;101086.53;;;20.36;61.69
78845;BME280;68195;50.854;2.860;2023-06-10T02:48:54;101082.25;;;20.44;61.69
78845;BME280;68195;50.854;2.860;2023-06-10T02:51:19;101042.16;;;20.07;62.06
78845;BME280;68195;50.854;2.860;2023-06-10T02:53:48;101031.38;;;20.08;61.51
78845;BME280;68195;50.854;2.860;2023-06-10T02:56:16;101111.13;;;20.59;61.54
78845;BME280;68195;50.854;2.860;2023-06-10T02:58:46;101049.59;;;20.13;61.78
78845;BME280;68195;50.854;2.860;2023-06-10T03:01:12;101075.13;;;20.14;62.45
78845;BME280;68195;50.854;2.860;2023-06-10T03:03:38;101059.09;;;20.16;62.02
78845;BME280;68195;50.854;2.860;2023-06-10T03:06:09;101022.19;;;19.82;62.47
78845;BME280;68195;50.854;2.860;2023-06-10T03:08:35;101074.94;;;20.06;62.92
78845;BME280;68195;50.854;2.860;2023-06-10T03:11:01;101013.22;;;19.62;63.08
78845;BME280;68195;50.854;2.860;2023-06-10T03:13:26;101009.75;;;19.61;62.66
78845;BME280;68195;50.854;2.860;2023-06-10T03:15:56;101072.94;;;19.98;63.06
78845;BME280;68195;50.854;2.860;2023-06-10T03:18:25;101034.88;;;19.67;62.84
78845;BME280;68195;50.854;2.860;2023-06-10T03:20:54;101047.34;;;19.87;62.59
78845;BME280;68195;50.854;2.860;2023-06-10T03:23:20;101112.03;;;20.27;62.80
78845;BME280;68195;50.854;2.860;2023-06-10T03:25:48;101065.22;;;19.95;63.28
78845;BME280;68195;50.854;2.860;2023-06-10T03:28:14;101111.53;;;20.12;63.71
78845;BME280;68195;50.854;2.860;2023-06-10T03:30:40;101067.56;;;19.88;63.55
78845;BME280;68195;50.854;2.860;2023-06-10T03:33:05;101108.47;;;20.17;63.34
78845;BME280;68195;50.854;2.860;2023-06-10T03:35:33;100953.63;;;19.14;63.20
78845;BME280;68195;50.854;2.860;2023-06-10T03:38:02;101030.63;;;19.55;63.20
78845;BME280;68195;50.854;2.860;2023-06-10T03:40:30;101093.44;;;19.96;63.37
78845;BME280;68195;50.854;2.860;2023-06-10T03:43:00;101092.97;;;19.91;63.68
78845;BME280;68195;50.854;2.860;2023-06-10T03:45:28;101075.97;;;19.73;63.79
78845;BME280;68195;50.854;2.860;2023-06-10T03:47:57;101119.16;;;20.05;63.73
78845;BME280;68195;50.854;2.860;2023-06-10T03:50:25;101110.06;;;19.98;63.79
78845;BME280;68195;50.854;2.860;2023-06-10T03:52:51;101103.13;;;19.86;64.18
78845;BME280;68195;50.854;2.860;2023-06-10T03:55:19;101039.78;;;19.51;63.87
78845;BME280;68195;50.854;2.860;2023-06-10T03:57:51;101116.50;;;20.05;63.79
78845;BME280;68195;50.854;2.860;2023-06-10T04:00:19;101080.25;;;19.85;63.61
78845;BME280;68195;50.854;2.860;2023-06-10T04:02:46;101073.53;;;19.81;63.61
78845;BME280;68195;50.854;2.860;2023-06-10T04:05:16;101073.06;;;19.64;64.52
78845;BME280;68195;50.854;2.860;2023-06-10T04:07:42;101067.53;;;19.67;64.10
78845;BME280;68195;50.854;2.860;2023-06-10T04:10:11;101129.78;;;20.05;63.81
78845;BME280;68195;50.854;2.860;2023-06-10T04:12:40;101042.06;;;19.55;63.86
78845;BME280;68195;50.854;2.860;2023-06-10T04:15:06;101056.22;;;19.65;63.56
78845;BME280;68195;50.854;2.860;2023-06-10T04:17:34;101048.91;;;19.58;63.58
78845;BME280;68195;50.854;2.860;2023-06-10T04:20:02;101075.34;;;19.69;63.62
78845;BME280;68195;50.854;2.860;2023-06-10T04:22:31;101097.81;;;19.86;63.88
78845;BME280;68195;50.854;2.860;2023-06-10T04:24:59;101108.03;;;19.91;64.15
78845;BME280;68195;50.854;2.860;2023-06-10T04:27:24;101099.50;;;19.87;63.50
78845;BME280;68195;50.854;2.860;2023-06-10T04:29:50;101103.31;;;19.94;63.47
78845;BME280;68195;50.854;2.860;2023-06-10T04:32:17;101089.41;;;19.81;63.65
78845;BME280;68195;50.854;2.860;2023-06-10T04:34:45;101061.53;;;19.65;63.60
78845;BME280;68195;50.854;2.860;2023-06-10T04:37:13;101070.31;;;19.66;63.86
78845;BME280;68195;50.854;2.860;2023-06-10T04:39:38;101138.94;;;20.01;63.82
78845;BME280;68195;50.854;2.860;2023-06-10T04:42:04;101068.03;;;19.61;63.57
78845;BME280;68195;50.854;2.860;2023-06-10T04:44:32;101096.66;;;19.79;64.16
78845;BME280;68195;50.854;2.860;2023-06-10T04:46:58;101088.59;;;19.69;64.30
78845;BME280;68195;50.854;2.860;2023-06-10T04:49:26;101101.38;;;19.75;64.31
78845;BME280;68195;50.854;2.860;2023-06-10T04:51:57;101076.22;;;19.58;64.30
78845;BME280;68195;50.854;2.860;2023-06-10T04:54:22;101049.19;;;19.43;64.92
78845;BME280;68195;50.854;2.860;2023-06-10T04:56:50;101048.81;;;19.48;64.50
78845;BME280;68195;50.854;2.860;2023-06-10T04:59:16;101065.28;;;19.52;64.51
78845;BME280;68195;50.854;2.860;2023-06-10T05:01:44;101080.53;;;19.71;64.34
78845;BME280;68195;50.854;2.860;2023-06-10T05:04:09;101069.94;;;19.71;64.60
78845;BME280;68195;50.854;2.860;2023-06-10T05:06:35;101004.09;;;19.34;64.27
78845;BME280;68195;50.854;2.860;2023-06-10T05:09:01;101144.06;;;20.14;63.93
78845;BME280;68195;50.854;2.860;2023-06-10T05:11:27;101079.06;;;19.78;64.62
78845;BME280;68195;50.854;2.860;2023-06-10T05:13:52;101045.16;;;19.60;64.76
78845;BME280;68195;50.854;2.860;2023-06-10T05:16:18;101102.50;;;19.94;64.60
78845;BME280;68195;50.854;2.860;2023-06-10T05:18:46;100983.81;;;19.23;64.08
78845;BME280;68195;50.854;2.860;2023-06-10T05:21:13;101049.69;;;19.70;64.12
78845;BME280;68195;50.854;2.860;2023-06-10T05:23:41;101085.28;;;19.88;64.83
78845;BME280;68195;50.854;2.860;2023-06-10T05:26:11;101117.22;;;20.07;64.73
78845;BME280;68195;50.854;2.860;2023-06-10T05:28:37;101108.56;;;20.05;64.29
78845;BME280;68195;50.854;2.860;2023-06-10T05:31:02;101101.72;;;20.03;64.71
78845;BME280;68195;50.854;2.860;2023-06-10T05:33:30;101084.06;;;19.92;65.36
78845;BME280;68195;50.854;2.860;2023-06-10T05:35:58;101129.19;;;20.23;64.89
78845;BME280;68195;50.854;2.860;2023-06-10T05:38:23;101132.88;;;20.32;64.75
78845;BME280;68195;50.854;2.860;2023-06-10T05:40:49;101091.88;;;20.15;64.65
78845;BME280;68195;50.854;2.860;2023-06-10T05:43:14;101117.63;;;20.24;64.46
78845;BME280;68195;50.854;2.860;2023-06-10T05:45:41;101095.38;;;20.15;64.52
78845;BME280;68195;50.854;2.860;2023-06-10T05:48:07;101117.06;;;20.30;64.30
78845;BME280;68195;50.854;2.860;2023-06-10T05:50:37;101133.91;;;20.40;64.44
78845;BME280;68195;50.854;2.860;2023-06-10T05:53:07;101152.25;;;20.53;64.53
78845;BME280;68195;50.854;2.860;2023-06-10T05:55:43;101101.72;;;20.24;64.24
78845;BME280;68195;50.854;2.860;2023-06-10T05:58:14;101099.78;;;20.26;64.01
78845;BME280;68195;50.854;2.860;2023-06-10T06:00:40;101114.09;;;20.44;63.77
78845;BME280;68195;50.854;2.860;2023-06-10T06:03:08;101151.81;;;20.69;63.78
78845;BME280;68195;50.854;2.860;2023-06-10T06:05:34;101156.34;;;20.78;63.63
78845;BME280;68195;50.854;2.860;2023-06-10T06:08:07;101155.94;;;20.83;63.50
78845;BME280;68195;50.854;2.860;2023-06-10T06:10:33;101154.56;;;20.88;63.67
78845;BME280;68195;50.854;2.860;2023-06-10T06:13:01;101155.25;;;20.90;63.33
78845;BME280;68195;50.854;2.860;2023-06-10T06:15:29;101157.13;;;21.00;62.94
78845;BME280;68195;50.854;2.860;2023-06-10T06:17:59;101158.53;;;21.04;62.95
78845;BME280;68195;50.854;2.860;2023-06-10T06:20:27;101162.22;;;21.13;62.49
78845;BME280;68195;50.854;2.860;2023-06-10T06:22:52;101095.69;;;20.74;62.30
78845;BME280;68195;50.854;2.860;2023-06-10T06:25:20;101161.97;;;21.25;62.35
78845;BME280;68195;50.854;2.860;2023-06-10T06:27:45;101165.63;;;21.34;61.77
78845;BME280;68195;50.854;2.860;2023-06-10T06:30:11;101158.75;;;21.31;61.79
78845;BME280;68195;50.854;2.860;2023-06-10T06:32:39;101168.19;;;21.45;60.28
78845;BME280;68195;50.854;2.860;2023-06-10T06:35:07;101146.63;;;21.39;59.89
78845;BME280;68195;50.854;2.860;2023-06-10T06:37:33;101175.63;;;21.61;60.51
78845;BME280;68195;50.854;2.860;2023-06-10T06:40:01;101168.09;;;21.66;60.68
78845;BME280;68195;50.854;2.860;2023-06-10T06:42:29;101149.88;;;21.62;60.34
78845;BME280;68195;50.854;2.860;2023-06-10T06:44:56;101107.72;;;21.38;60.44
78845;BME280;68195;50.854;2.860;2023-06-10T06:47:24;101128.75;;;21.50;60.80
78845;BME280;68195;50.854;2.860;2023-06-10T06:49:52;101151.28;;;21.76;60.15
78845;BME280;68195;50.854;2.860;2023-06-10T06:52:20;101115.88;;;21.65;59.63
78845;BME280;68195;50.854;2.860;2023-06-10T06:54:47;101179.41;;;22.17;58.72
78845;BME280;68195;50.854;2.860;2023-06-10T06:57:17;101124.00;;;21.93;58.70
78845;BME280;68195;50.854;2.860;2023-06-10T06:59:42;101158.81;;;22.19;59.01
78845;BME280;68195;50.854;2.860;2023-06-10T07:02:08;101182.66;;;22.40;59.25
78845;BME280;68195;50.854;2.860;2023-06-10T07:04:33;101182.88;;;22.57;58.22
78845;BME280;68195;50.854;2.860;2023-06-10T07:06:59;101169.41;;;22.58;57.30
78845;BME280;68195;50.854;2.860;2023-06-10T07:09:26;101104.34;;;22.33;57.35
78845;BME280;68195;50.854;2.860;2023-06-10T07:11:53;101117.91;;;22.49;57.12
78845;BME280;68195;50.854;2.860;2023-06-10T07:14:18;101161.34;;;22.87;56.39
78845;BME280;68195;50.854;2.860;2023-06-10T07:16:49;101162.72;;;22.91;56.40
78845;BME280;68195;50.854;2.860;2023-06-10T07:19:14;101182.00;;;23.13;56.89
78845;BME280;68195;50.854;2.860;2023-06-10T07:21:40;101179.38;;;23.31;56.35
78845;BME280;68195;50.854;2.860;2023-06-10T07:24:08;101151.91;;;23.30;55.80
78845;BME280;68195;50.854;2.860;2023-06-10T07:26:33;101180.78;;;23.53;55.65
78845;BME280;68195;50.854;2.860;2023-06-10T07:28:58;101183.38;;;23.63;56.06
78845;BME280;68195;50.854;2.860;2023-06-10T07:31:24;101160.94;;;23.65;55.26
78845;BME280;68195;50.854;2.860;2023-06-10T07:33:50;101182.75;;;23.97;53.50
78845;BME280;68195;50.854;2.860;2023-06-10T07:36:15;101104.53;;;23.60;53.87
78845;BME280;68195;50.854;2.860;2023-06-10T07:38:45;101133.56;;;23.99;52.65
78845;BME280;68195;50.854;2.860;2023-06-10T07:41:10;101117.81;;;23.88;53.00
78845;BME280;68195;50.854;2.860;2023-06-10T07:43:37;101132.34;;;24.11;51.79
78845;BME280;68195;50.854;2.860;2023-06-10T07:46:02;101160.34;;;24.33;52.61
78845;BME280;68195;50.854;2.860;2023-06-10T07:48:31;101145.69;;;24.38;51.74
78845;BME280;68195;50.854;2.860;2023-06-10T07:50:56;101169.00;;;24.53;51.51
78845;BME280;68195;50.854;2.860;2023-06-10T07:53:22;101196.91;;;24.85;51.55
78845;BME280;68195;50.854;2.860;2023-06-10T07:55:47;101143.56;;;24.67;50.63
78845;BME280;68195;50.854;2.860;2023-06-10T07:58:15;101156.16;;;24.83;50.22
78845;BME280;68195;50.854;2.860;2023-06-10T08:00:40;101154.69;;;24.89;50.51
78845;BME280;68195;50.854;2.860;2023-06-10T08:03:05;101172.31;;;25.08;49.81
78845;BME280;68195;50.854;2.860;2023-06-10T08:05:31;101187.28;;;25.35;49.37
78845;BME280;68195;50.854;2.860;2023-06-10T08:07:57;101200.84;;;25.42;48.96
78845;BME280;68195;50.854;2.860;2023-06-10T08:10:22;101153.50;;;25.26;48.46
78845;BME280;68195;50.854;2.860;2023-06-10T08:12:50;101169.13;;;25.47;48.39
78845;BME280;68195;50.854;2.860;2023-06-10T08:15:16;101137.69;;;25.41;47.74
78845;BME280;68195;50.854;2.860;2023-06-10T08:17:43;101168.16;;;25.64;47.65
78845;BME280;68195;50.854;2.860;2023-06-10T08:20:12;101166.47;;;25.71;47.81
78845;BME280;68195;50.854;2.860;2023-06-10T08:22:37;101191.09;;;25.99;46.67
78845;BME280;68195;50.854;2.860;2023-06-10T08:25:05;101212.34;;;26.26;46.48
78845;BME280;68195;50.854;2.860;2023-06-10T08:27:31;101202.47;;;26.26;46.90
78845;BME280;68195;50.854;2.860;2023-06-10T08:29:56;101161.16;;;26.12;46.82
78845;BME280;68195;50.854;2.860;2023-06-10T08:32:23;101169.34;;;26.35;46.29
78845;BME280;68195;50.854;2.860;2023-06-10T08:34:48;101149.78;;;26.27;46.03
78845;BME280;68195;50.854;2.860;2023-06-10T08:37:14;101147.06;;;26.43;46.08
78845;BME280;68195;50.854;2.860;2023-06-10T08:39:41;101212.47;;;26.82;46.13
78845;BME280;68195;50.854;2.860;2023-06-10T08:42:35;101218.63;;;26.98;45.27
78845;BME280;68195;50.854;2.860;2023-06-10T08:45:04;101176.25;;;26.94;44.57
78845;BME280;68195;50.854;2.860;2023-06-10T08:47:35;101206.47;;;27.27;44.19
78845;BME280;68195;50.854;2.860;2023-06-10T08:50:05;101173.16;;;27.22;43.02
78845;BME280;68195;50.854;2.860;2023-06-10T08:52:37;101193.59;;;27.54;43.10
78845;BME280;68195;50.854;2.860;2023-06-10T08:55:14;101191.91;;;27.53;43.01
78845;BME280;68195;50.854;2.860;2023-06-10T08:57:43;101154.53;;;27.51;43.12
78845;BME280;68195;50.854;2.860;2023-06-10T09:00:12;101211.81;;;27.90;41.32
78845;BME280;68195;50.854;2.860;2023-06-10T09:02:38;101181.66;;;27.79;41.19
78845;BME280;68195;50.854;2.860;2023-06-10T09:05:05;101199.66;;;28.02;41.21
78845;BME280;68195;50.854;2.860;2023-06-10T09:07:33;101147.13;;;27.76;41.33
78845;BME280;68195;50.854;2.860;2023-06-10T09:10:06;101125.66;;;27.76;41.33
78845;BME280;68195;50.854;2.860;2023-06-10T09:12:35;101135.81;;;27.89;40.61
78845;BME280;68195;50.854;2.860;2023-06-10T09:15:01;101177.38;;;28.31;40.31
78845;BME280;68195;50.854;2.860;2023-06-10T09:17:29;101207.75;;;28.55;40.51
78845;BME280;68195;50.854;2.860;2023-06-10T09:19:55;101194.09;;;28.41;40.21
78845;BME280;68195;50.854;2.860;2023-06-10T09:22:22;101171.03;;;28.47;40.03
78845;BME280;68195;50.854;2.860;2023-06-10T09:24:48;101156.91;;;28.53;40.15
78845;BME280;68195;50.854;2.860;2023-06-10T09:27:14;101133.50;;;28.39;38.93
78845;BME280;68195;50.854;2.860;2023-06-10T09:29:53;101198.97;;;28.91;39.55
78845;BME280;68195;50.854;2.860;2023-06-10T09:32:19;101202.31;;;29.08;39.56
78845;BME280;68195;50.854;2.860;2023-06-10T09:34:47;101153.34;;;28.82;38.85
78845;BME280;68195;50.854;2.860;2023-06-10T09:37:19;101155.66;;;29.00;39.00
78845;BME280;68195;50.854;2.860;2023-06-10T09:40:02;101168.66;;;29.12;39.07
78845;BME280;68195;50.854;2.860;2023-06-10T09:42:33;101183.81;;;29.34;38.97
78845;BME280;68195;50.854;2.860;2023-06-10T09:45:00;101134.34;;;29.14;38.77
78845;BME280;68195;50.854;2.860;2023-06-10T09:47:25;101133.94;;;29.17;38.08
78845;BME280;68195;50.854;2.860;2023-06-10T09:49:51;101132.56;;;29.21;37.75
78845;BME280;68195;50.854;2.860;2023-06-10T09:52:27;101172.25;;;29.55;37.54
78845;BME280;68195;50.854;2.860;2023-06-10T09:55:02;101174.28;;;29.53;37.78
78845;BME280;68195;50.854;2.860;2023-06-10T09:57:33;101176.00;;;29.61;37.19
78845;BME280;68195;50.854;2.860;2023-06-10T10:00:08;101211.56;;;29.71;36.71
78845;BME280;68195;50.854;2.860;2023-06-10T10:02:44;101204.53;;;29.70;37.58
78845;BME280;68195;50.854;2.860;2023-06-10T10:05:09;101170.84;;;29.59;37.36
78845;BME280;68195;50.854;2.860;2023-06-10T10:07:35;101213.81;;;29.89;37.16
78845;BME280;68195;50.854;2.860;2023-06-10T10:10:00;101176.94;;;29.68;37.42
78845;BME280;68195;50.854;2.860;2023-06-10T10:12:26;101183.88;;;29.77;37.39
78845;BME280;68195;50.854;2.860;2023-06-10T10:14:53;101178.09;;;29.80;37.65
78845;BME280;68195;50.854;2.860;2023-06-10T10:17:20;101153.72;;;29.67;36.62
78845;BME280;68195;50.854;2.860;2023-06-10T10:19:54;101209.00;;;30.06;36.60
78845;BME280;68195;50.854;2.860;2023-06-10T10:22:27;101189.16;;;29.85;36.90
78845;BME280;68195;50.854;2.860;2023-06-10T10:25:00;101213.91;;;29.96;37.04
78845;BME280;68195;50.854;2.860;2023-06-10T10:27:28;101168.00;;;29.68;36.35
78845;BME280;68195;50.854;2.860;2023-06-10T10:30:00;101177.69;;;29.62;37.14
78845;BME280;68195;50.854;2.860;2023-06-10T10:32:52;101203.75;;;29.76;37.54
78845;BME280;68195;50.854;2.860;2023-06-10T10:35:22;101183.25;;;29.60;38.19
78845;BME280;68195;50.854;2.860;2023-06-10T10:37:51;101203.91;;;29.53;38.74
78845;BME280;68195;50.854;2.860;2023-06-10T10:40:19;101152.97;;;29.15;38.96
78845;BME280;68195;50.854;2.860;2023-06-10T10:42:47;101198.06;;;29.50;39.11
78845;BME280;68195;50.854;2.860;2023-06-10T10:45:13;101209.75;;;29.57;38.58
78845;BME280;68195;50.854;2.860;2023-06-10T10:47:39;101186.94;;;29.53;38.37
78845;BME280;68195;50.854;2.860;2023-06-10T10:50:22;101186.78;;;29.61;38.71
78845;BME280;68195;50.854;2.860;2023-06-10T10:55:26;101198.94;;;29.72;37.97
78845;BME280;68195;50.854;2.860;2023-06-10T11:02:59;101174.47;;;29.52;37.15
78845;BME280;68195;50.854;2.860;2023-06-10T11:05:39;101195.25;;;29.58;36.79
78845;BME280;68195;50.854;2.860;2023-06-10T11:08:05;101192.81;;;29.63;36.02
78845;BME280;68195;50.854;2.860;2023-06-10T11:10:39;101157.16;;;29.39;35.65
78845;BME280;68195;50.854;2.860;2023-06-10T11:13:14;101156.22;;;29.47;36.09
78845;BME280;68195;50.854;2.860;2023-06-10T11:15:46;101155.75;;;29.43;36.22
78845;BME280;68195;50.854;2.860;2023-06-10T11:31:31;101175.31;;;29.52;34.13
78845;BME280;68195;50.854;2.860;2023-06-10T11:34:04;101167.94;;;29.61;34.31
78845;BME280;68195;50.854;2.860;2023-06-10T11:36:31;101178.50;;;29.77;34.09
78845;BME280;68195;50.854;2.860;2023-06-10T11:39:04;101184.41;;;29.88;34.42
78845;BME280;68195;50.854;2.860;2023-06-10T11:41:34;101115.28;;;29.52;34.03
78845;BME280;68195;50.854;2.860;2023-06-10T11:44:04;101133.41;;;29.64;33.50
78845;BME280;68195;50.854;2.860;2023-06-10T11:46:34;101131.13;;;29.61;33.10
78845;BME280;68195;50.854;2.860;2023-06-10T11:49:03;101167.47;;;29.94;33.48
78845;BME280;68195;50.854;2.860;2023-06-10T11:51:34;101158.28;;;29.88;33.55
78845;BME280;68195;50.854;2.860;2023-06-10T11:54:03;101146.97;;;29.71;33.59
78845;BME280;68195;50.854;2.860;2023-06-10T11:56:30;101182.00;;;29.99;33.20
78845;BME280;68195;50.854;2.860;2023-06-10T12:01:24;101175.78;;;29.99;33.19
78845;BME280;68195;50.854;2.860;2023-06-10T12:04:06;101168.03;;;29.89;34.15
78845;BME280;68195;50.854;2.860;2023-06-10T12:06:57;101166.84;;;29.92;33.79
78845;BME280;68195;50.854;2.860;2023-06-10T12:12:03;101166.25;;;29.96;33.88
78845;BME280;68195;50.854;2.860;2023-06-10T12:17:21;101157.81;;;30.06;33.29
78845;BME280;68195;50.854;2.860;2023-06-10T12:19:50;101139.50;;;29.95;34.43
78845;BME280;68195;50.854;2.860;2023-06-10T12:22:16;101091.88;;;29.74;33.95
78845;BME280;68195;50.854;2.860;2023-06-10T12:25:02;101160.22;;;30.22;33.53
78845;BME280;68195;50.854;2.860;2023-06-10T12:27:31;101132.25;;;29.95;33.77
78845;BME280;68195;50.854;2.860;2023-06-10T12:29:57;101119.00;;;29.94;33.38
78845;BME280;68195;50.854;2.860;2023-06-10T12:32:42;101142.44;;;30.00;32.67
78845;BME280;68195;50.854;2.860;2023-06-10T12:35:08;101152.25;;;30.08;33.41
78845;BME280;68195;50.854;2.860;2023-06-10T12:37:34;101140.69;;;30.14;32.72
78845;BME280;68195;50.854;2.860;2023-06-10T12:40:04;101095.31;;;29.89;32.34
78845;BME280;68195;50.854;2.860;2023-06-10T12:42:36;101116.50;;;29.92;31.87
78845;BME280;68195;50.854;2.860;2023-06-10T12:45:02;101108.19;;;29.87;33.04
78845;BME280;68195;50.854;2.860;2023-06-10T12:47:36;101079.16;;;29.68;33.18
78845;BME280;68195;50.854;2.860;2023-06-10T12:50:05;101069.53;;;29.73;32.77
78845;BME280;68195;50.854;2.860;2023-06-10T12:52:31;101090.78;;;29.90;31.13
78845;BME280;68195;50.854;2.860;2023-06-10T12:54:57;101135.38;;;30.27;31.69
78845;BME280;68195;50.854;2.860;2023-06-10T12:57:23;101102.78;;;30.15;31.58
78845;BME280;68195;50.854;2.860;2023-06-10T12:59:49;101090.09;;;30.09;31.19
78845;BME280;68195;50.854;2.860;2023-06-10T13:02:20;101065.97;;;29.94;30.75
78845;BME280;68195;50.854;2.860;2023-06-10T13:04:52;101130.53;;;30.37;30.16
78845;BME280;68195;50.854;2.860;2023-06-10T13:07:17;101094.81;;;30.29;28.80
78845;BME280;68195;50.854;2.860;2023-06-10T13:09:45;101064.31;;;30.00;29.33
78845;BME280;68195;50.854;2.860;2023-06-10T13:12:16;101134.91;;;30.45;29.99
78845;BME280;68195;50.854;2.860;2023-06-10T13:14:42;101085.56;;;30.16;30.81
78845;BME280;68195;50.854;2.860;2023-06-10T13:17:08;101133.06;;;30.45;30.69
78845;BME280;68195;50.854;2.860;2023-06-10T13:19:34;101089.34;;;30.22;31.85
78845;BME280;68195;50.854;2.860;2023-06-10T13:21:59;101076.00;;;30.07;31.92
78845;BME280;68195;50.854;2.860;2023-06-10T13:24:24;101066.91;;;30.15;31.52
78845;BME280;68195;50.854;2.860;2023-06-10T13:26:51;101105.47;;;30.43;31.45